sensor_id;sensor_type;location;lat;lon;timestamp;P1;durP1;ratioP1;P2;durP2;ratioP2
74674;SDS011;63200;48.810;12.352;2023-12-29T00:00:18;16.63;;;8.95;;
74674;SDS011;63200;48.810;12.352;2023-12-29T00:02:44;11.60;;;8.00;;
74674;SDS011;63200;48.810;12.352;2023-12-29T00:05:09;16.00;;;8.48;;
74674;SDS011;63200;48.810;12.352;2023-12-29T00:07:34;15.20;;;8.52;;
74674;SDS011;63200;48.810;12.352;2023-12-29T00:09:59;14.13;;;8.20;;
74674;SDS011;63200;48.810;12.352;2023-12-29T00:12:25;14.85;;;8.38;;
74674;SDS011;63200;48.810;12.352;2023-12-29T00:14:50;12.02;;;7.22;;
74674;SDS011;63200;48.810;12.352;2023-12-29T00:17:15;10.93;;;7.05;;
74674;SDS011;63200;48.810;12.352;2023-12-29T00:19:40;12.68;;;7.50;;
74674;SDS011;63200;48.810;12.352;2023-12-29T00:22:06;12.15;;;7.75;;
74674;SDS011;63200;48.810;12.352;2023-12-29T00:24:31;13.60;;;8.07;;
74674;SDS011;63200;48.810;12.352;2023-12-29T00:26:56;10.82;;;6.80;;
74674;SDS011;63200;48.810;12.352;2023-12-29T00:29:23;4.72;;;4.18;;
74674;SDS011;63200;48.810;12.352;2023-12-29T00:31:49;4.88;;;4.28;;
74674;SDS011;63200;48.810;12.352;2023-12-29T00:34:14;4.03;;;3.40;;
74674;SDS011;63200;48.810;12.352;2023-12-29T00:36:39;3.80;;;3.00;;
74674;SDS011;63200;48.810;12.352;2023-12-29T00:39:05;3.05;;;2.83;;
74674;SDS011;63200;48.810;12.352;2023-12-29T00:41:30;2.95;;;2.70;;
74674;SDS011;63200;48.810;12.352;2023-12-29T00:43:56;3.72;;;2.53;;
74674;SDS011;63200;48.810;12.352;2023-12-29T00:46:21;4.65;;;2.72;;
74674;SDS011;63200;48.810;12.352;2023-12-29T00:48:47;3.45;;;2.83;;
74674;SDS011;63200;48.810;12.352;2023-12-29T00:51:12;4.97;;;3.38;;
74674;SDS011;63200;48.810;12.352;2023-12-29T00:53:37;6.45;;;3.00;;
74674;SDS011;63200;48.810;12.352;2023-12-29T00:56:02;3.22;;;2.92;;
74674;SDS011;63200;48.810;12.352;2023-12-29T00:58:28;5.10;;;3.30;;
74674;SDS011;63200;48.810;12.352;2023-12-29T01:00:54;3.72;;;3.33;;
74674;SDS011;63200;48.810;12.352;2023-12-29T01:03:19;5.72;;;3.90;;
74674;SDS011;63200;48.810;12.352;2023-12-29T01:05:45;9.38;;;5.25;;
74674;SDS011;63200;48.810;12.352;2023-12-29T01:08:10;4.65;;;4.10;;
74674;SDS011;63200;48.810;12.352;2023-12-29T01:10:36;8.00;;;4.88;;
74674;SDS011;63200;48.810;12.352;2023-12-29T01:13:01;4.20;;;3.70;;
74674;SDS011;63200;48.810;12.352;2023-12-29T01:15:27;4.25;;;3.47;;
74674;SDS011;63200;48.810;12.352;2023-12-29T01:17:53;3.83;;;3.28;;
74674;SDS011;63200;48.810;12.352;2023-12-29T01:20:18;4.88;;;3.55;;
74674;SDS011;63200;48.810;12.352;2023-12-29T01:22:44;4.85;;;3.13;;
74674;SDS011;63200;48.810;12.352;2023-12-29T01:25:09;4.90;;;4.00;;
74674;SDS011;63200;48.810;12.352;2023-12-29T01:27:34;4.32;;;3.17;;
74674;SDS011;63200;48.810;12.352;2023-12-29T01:29:59;2.85;;;2.65;;
74674;SDS011;63200;48.810;12.352;2023-12-29T01:32:25;3.40;;;2.80;;
74674;SDS011;63200;48.810;12.352;2023-12-29T01:34:51;3.33;;;2.60;;
74674;SDS011;63200;48.810;12.352;2023-12-29T01:37:17;3.42;;;3.13;;
74674;SDS011;63200;48.810;12.352;2023-12-29T01:39:42;5.57;;;2.90;;
74674;SDS011;63200;48.810;12.352;2023-12-29T01:42:08;3.80;;;3.45;;
74674;SDS011;63200;48.810;12.352;2023-12-29T01:44:33;3.63;;;3.33;;
74674;SDS011;63200;48.810;12.352;2023-12-29T01:46:59;3.28;;;3.00;;
74674;SDS011;63200;48.810;12.352;2023-12-29T01:49:25;4.47;;;3.55;;
74674;SDS011;63200;48.810;12.352;2023-12-29T01:51:53;4.10;;;3.70;;
74674;SDS011;63200;48.810;12.352;2023-12-29T01:54:21;2.80;;;2.60;;
74674;SDS011;63200;48.810;12.352;2023-12-29T01:56:51;4.70;;;2.90;;
74674;SDS011;63200;48.810;12.352;2023-12-29T01:59:20;3.28;;;2.97;;
74674;SDS011;63200;48.810;12.352;2023-12-29T02:01:45;3.08;;;2.88;;
74674;SDS011;63200;48.810;12.352;2023-12-29T02:04:12;3.22;;;2.92;;
74674;SDS011;63200;48.810;12.352;2023-12-29T02:06:38;3.17;;;2.90;;
74674;SDS011;63200;48.810;12.352;2023-12-29T02:09:05;3.42;;;3.17;;
74674;SDS011;63200;48.810;12.352;2023-12-29T02:11:31;3.72;;;3.42;;
74674;SDS011;63200;48.810;12.352;2023-12-29T02:13:57;3.35;;;3.00;;
74674;SDS011;63200;48.810;12.352;2023-12-29T02:19:24;5.65;;;4.35;;
74674;SDS011;63200;48.810;12.352;2023-12-29T02:22:01;5.80;;;4.78;;
74674;SDS011;63200;48.810;12.352;2023-12-29T02:24:26;17.25;;;9.27;;
74674;SDS011;63200;48.810;12.352;2023-12-29T02:26:53;40.25;;;17.85;;
74674;SDS011;63200;48.810;12.352;2023-12-29T02:29:26;63.75;;;26.77;;
74674;SDS011;63200;48.810;12.352;2023-12-29T02:31:54;35.17;;;17.08;;
74674;SDS011;63200;48.810;12.352;2023-12-29T02:34:24;9.07;;;5.13;;
74674;SDS011;63200;48.810;12.352;2023-12-29T02:36:52;14.55;;;9.60;;
74674;SDS011;63200;48.810;12.352;2023-12-29T02:39:19;12.23;;;7.05;;
74674;SDS011;63200;48.810;12.352;2023-12-29T02:41:44;11.55;;;7.07;;
74674;SDS011;63200;48.810;12.352;2023-12-29T02:44:09;18.85;;;15.88;;
74674;SDS011;63200;48.810;12.352;2023-12-29T02:46:35;5.00;;;4.55;;
74674;SDS011;63200;48.810;12.352;2023-12-29T02:49:00;3.05;;;2.80;;
74674;SDS011;63200;48.810;12.352;2023-12-29T02:51:25;3.88;;;3.50;;
74674;SDS011;63200;48.810;12.352;2023-12-29T02:53:51;6.55;;;3.30;;
74674;SDS011;63200;48.810;12.352;2023-12-29T02:56:16;3.15;;;3.00;;
74674;SDS011;63200;48.810;12.352;2023-12-29T02:58:41;3.38;;;2.90;;
74674;SDS011;63200;48.810;12.352;2023-12-29T03:01:06;3.10;;;2.90;;
74674;SDS011;63200;48.810;12.352;2023-12-29T03:03:32;3.03;;;2.83;;
74674;SDS011;63200;48.810;12.352;2023-12-29T03:05:57;3.10;;;2.90;;
74674;SDS011;63200;48.810;12.352;2023-12-29T03:08:22;3.22;;;3.03;;
74674;SDS011;63200;48.810;12.352;2023-12-29T03:10:47;2.50;;;2.40;;
74674;SDS011;63200;48.810;12.352;2023-12-29T03:13:13;2.85;;;2.65;;
74674;SDS011;63200;48.810;12.352;2023-12-29T03:15:38;2.45;;;2.35;;
74674;SDS011;63200;48.810;12.352;2023-12-29T03:18:03;3.20;;;3.00;;
74674;SDS011;63200;48.810;12.352;2023-12-29T03:20:29;3.72;;;3.42;;
74674;SDS011;63200;48.810;12.352;2023-12-29T03:22:54;3.92;;;3.38;;
74674;SDS011;63200;48.810;12.352;2023-12-29T03:25:20;3.35;;;2.63;;
74674;SDS011;63200;48.810;12.352;2023-12-29T03:27:45;3.08;;;2.80;;
74674;SDS011;63200;48.810;12.352;2023-12-29T03:30:11;3.30;;;2.60;;
74674;SDS011;63200;48.810;12.352;2023-12-29T03:32:36;2.95;;;2.53;;
74674;SDS011;63200;48.810;12.352;2023-12-29T03:35:01;2.50;;;2.38;;
74674;SDS011;63200;48.810;12.352;2023-12-29T03:37:27;2.63;;;2.42;;
74674;SDS011;63200;48.810;12.352;2023-12-29T03:39:52;3.10;;;2.70;;
74674;SDS011;63200;48.810;12.352;2023-12-29T03:42:17;2.72;;;2.53;;
74674;SDS011;63200;48.810;12.352;2023-12-29T03:44:43;3.22;;;2.42;;
74674;SDS011;63200;48.810;12.352;2023-12-29T03:47:08;3.33;;;3.03;;
74674;SDS011;63200;48.810;12.352;2023-12-29T03:49:35;2.83;;;2.63;;
74674;SDS011;63200;48.810;12.352;2023-12-29T03:52:00;2.60;;;2.47;;
74674;SDS011;63200;48.810;12.352;2023-12-29T03:54:26;2.97;;;2.67;;
74674;SDS011;63200;48.810;12.352;2023-12-29T03:56:51;2.38;;;2.17;;
74674;SDS011;63200;48.810;12.352;2023-12-29T03:59:16;2.92;;;2.55;;
74674;SDS011;63200;48.810;12.352;2023-12-29T04:01:42;3.35;;;2.42;;
74674;SDS011;63200;48.810;12.352;2023-12-29T04:04:08;2.67;;;2.50;;
74674;SDS011;63200;48.810;12.352;2023-12-29T04:06:33;2.88;;;2.67;;
74674;SDS011;63200;48.810;12.352;2023-12-29T04:08:58;3.70;;;2.78;;
74674;SDS011;63200;48.810;12.352;2023-12-29T04:11:23;3.55;;;2.67;;
74674;SDS011;63200;48.810;12.352;2023-12-29T04:13:49;2.50;;;2.40;;
74674;SDS011;63200;48.810;12.352;2023-12-29T04:16:14;2.85;;;2.65;;
74674;SDS011;63200;48.810;12.352;2023-12-29T04:18:40;3.05;;;2.85;;
74674;SDS011;63200;48.810;12.352;2023-12-29T04:21:05;3.10;;;2.90;;
74674;SDS011;63200;48.810;12.352;2023-12-29T04:23:31;6.18;;;3.15;;
74674;SDS011;63200;48.810;12.352;2023-12-29T04:25:56;2.35;;;2.25;;
74674;SDS011;63200;48.810;12.352;2023-12-29T04:28:21;2.58;;;2.38;;
74674;SDS011;63200;48.810;12.352;2023-12-29T04:30:46;2.80;;;2.60;;
74674;SDS011;63200;48.810;12.352;2023-12-29T04:33:12;3.88;;;2.63;;
74674;SDS011;63200;48.810;12.352;2023-12-29T04:35:37;2.97;;;2.78;;
74674;SDS011;63200;48.810;12.352;2023-12-29T04:38:02;3.08;;;2.83;;
74674;SDS011;63200;48.810;12.352;2023-12-29T04:40:28;3.08;;;2.55;;
74674;SDS011;63200;48.810;12.352;2023-12-29T04:42:53;2.72;;;2.53;;
74674;SDS011;63200;48.810;12.352;2023-12-29T04:45:18;2.78;;;2.58;;
74674;SDS011;63200;48.810;12.352;2023-12-29T04:47:44;3.40;;;2.63;;
74674;SDS011;63200;48.810;12.352;2023-12-29T04:50:09;2.67;;;2.47;;
74674;SDS011;63200;48.810;12.352;2023-12-29T04:52:34;2.45;;;2.22;;
74674;SDS011;63200;48.810;12.352;2023-12-29T04:54:59;2.63;;;2.42;;
74674;SDS011;63200;48.810;12.352;2023-12-29T04:57:25;2.72;;;2.40;;
74674;SDS011;63200;48.810;12.352;2023-12-29T04:59:50;3.03;;;2.80;;
74674;SDS011;63200;48.810;12.352;2023-12-29T05:02:15;2.53;;;2.30;;
74674;SDS011;63200;48.810;12.352;2023-12-29T05:04:41;2.75;;;2.58;;
74674;SDS011;63200;48.810;12.352;2023-12-29T05:07:08;3.72;;;2.30;;
74674;SDS011;63200;48.810;12.352;2023-12-29T05:09:33;2.55;;;2.40;;
74674;SDS011;63200;48.810;12.352;2023-12-29T05:11:59;4.22;;;3.28;;
74674;SDS011;63200;48.810;12.352;2023-12-29T05:14:24;4.03;;;2.55;;
74674;SDS011;63200;48.810;12.352;2023-12-29T05:16:49;3.10;;;2.90;;
74674;SDS011;63200;48.810;12.352;2023-12-29T05:19:14;3.10;;;2.80;;
74674;SDS011;63200;48.810;12.352;2023-12-29T05:21:40;3.00;;;2.80;;
74674;SDS011;63200;48.810;12.352;2023-12-29T05:24:06;3.28;;;2.80;;
74674;SDS011;63200;48.810;12.352;2023-12-29T05:26:32;3.33;;;2.70;;
74674;SDS011;63200;48.810;12.352;2023-12-29T05:28:57;2.83;;;2.63;;
74674;SDS011;63200;48.810;12.352;2023-12-29T05:31:22;3.20;;;3.00;;
74674;SDS011;63200;48.810;12.352;2023-12-29T05:33:48;4.57;;;2.83;;
74674;SDS011;63200;48.810;12.352;2023-12-29T05:36:13;4.03;;;2.55;;
74674;SDS011;63200;48.810;12.352;2023-12-29T05:38:38;3.35;;;2.83;;
74674;SDS011;63200;48.810;12.352;2023-12-29T05:41:06;3.40;;;2.60;;
74674;SDS011;63200;48.810;12.352;2023-12-29T05:43:31;3.30;;;3.05;;
74674;SDS011;63200;48.810;12.352;2023-12-29T05:45:58;2.97;;;2.75;;
74674;SDS011;63200;48.810;12.352;2023-12-29T05:48:23;3.22;;;3.03;;
74674;SDS011;63200;48.810;12.352;2023-12-29T05:50:49;4.00;;;2.60;;
74674;SDS011;63200;48.810;12.352;2023-12-29T05:53:18;3.58;;;2.65;;
74674;SDS011;63200;48.810;12.352;2023-12-29T05:55:43;3.88;;;2.90;;
74674;SDS011;63200;48.810;12.352;2023-12-29T05:58:10;3.25;;;2.83;;
74674;SDS011;63200;48.810;12.352;2023-12-29T06:00:36;2.80;;;2.60;;
74674;SDS011;63200;48.810;12.352;2023-12-29T06:03:01;3.78;;;2.80;;
74674;SDS011;63200;48.810;12.352;2023-12-29T06:05:29;2.97;;;2.60;;
74674;SDS011;63200;48.810;12.352;2023-12-29T06:07:54;4.78;;;3.13;;
74674;SDS011;63200;48.810;12.352;2023-12-29T06:10:19;5.55;;;2.90;;
74674;SDS011;63200;48.810;12.352;2023-12-29T06:12:44;3.30;;;3.08;;
74674;SDS011;63200;48.810;12.352;2023-12-29T06:15:12;3.47;;;3.17;;
74674;SDS011;63200;48.810;12.352;2023-12-29T06:17:38;4.22;;;2.83;;
74674;SDS011;63200;48.810;12.352;2023-12-29T06:20:05;3.70;;;2.88;;
74674;SDS011;63200;48.810;12.352;2023-12-29T06:22:31;4.15;;;2.75;;
74674;SDS011;63200;48.810;12.352;2023-12-29T06:24:56;3.40;;;2.78;;
74674;SDS011;63200;48.810;12.352;2023-12-29T06:27:22;3.25;;;2.80;;
74674;SDS011;63200;48.810;12.352;2023-12-29T06:29:47;3.03;;;2.83;;
74674;SDS011;63200;48.810;12.352;2023-12-29T06:32:13;5.10;;;2.70;;
74674;SDS011;63200;48.810;12.352;2023-12-29T06:34:38;5.80;;;2.80;;
74674;SDS011;63200;48.810;12.352;2023-12-29T06:37:03;2.67;;;2.47;;
74674;SDS011;63200;48.810;12.352;2023-12-29T06:39:28;3.55;;;2.80;;
74674;SDS011;63200;48.810;12.352;2023-12-29T06:41:54;3.67;;;2.30;;
74674;SDS011;63200;48.810;12.352;2023-12-29T06:44:19;3.90;;;3.60;;
74674;SDS011;63200;48.810;12.352;2023-12-29T06:46:44;5.38;;;3.45;;
74674;SDS011;63200;48.810;12.352;2023-12-29T06:49:09;3.95;;;3.30;;
74674;SDS011;63200;48.810;12.352;2023-12-29T06:51:35;6.38;;;3.00;;
74674;SDS011;63200;48.810;12.352;2023-12-29T06:54:05;4.50;;;3.05;;
74674;SDS011;63200;48.810;12.352;2023-12-29T06:56:31;3.53;;;3.22;;
74674;SDS011;63200;48.810;12.352;2023-12-29T06:58:56;4.97;;;3.45;;
74674;SDS011;63200;48.810;12.352;2023-12-29T07:01:21;3.45;;;3.22;;
74674;SDS011;63200;48.810;12.352;2023-12-29T07:03:47;3.55;;;2.83;;
74674;SDS011;63200;48.810;12.352;2023-12-29T07:06:12;4.47;;;3.40;;
74674;SDS011;63200;48.810;12.352;2023-12-29T07:08:37;4.28;;;2.88;;
74674;SDS011;63200;48.810;12.352;2023-12-29T07:11:03;2.70;;;1.92;;
74674;SDS011;63200;48.810;12.352;2023-12-29T07:13:28;4.32;;;3.10;;
74674;SDS011;63200;48.810;12.352;2023-12-29T07:15:54;3.35;;;3.05;;
74674;SDS011;63200;48.810;12.352;2023-12-29T07:18:19;4.10;;;3.15;;
74674;SDS011;63200;48.810;12.352;2023-12-29T07:20:44;4.28;;;3.38;;
74674;SDS011;63200;48.810;12.352;2023-12-29T07:23:10;3.38;;;2.90;;
74674;SDS011;63200;48.810;12.352;2023-12-29T07:25:35;3.50;;;3.03;;
74674;SDS011;63200;48.810;12.352;2023-12-29T07:28:00;6.78;;;3.70;;
74674;SDS011;63200;48.810;12.352;2023-12-29T07:30:25;3.58;;;3.28;;
74674;SDS011;63200;48.810;12.352;2023-12-29T07:32:51;5.07;;;3.75;;
74674;SDS011;63200;48.810;12.352;2023-12-29T07:35:17;4.70;;;3.50;;
74674;SDS011;63200;48.810;12.352;2023-12-29T07:37:44;3.85;;;3.55;;
74674;SDS011;63200;48.810;12.352;2023-12-29T07:40:10;3.50;;;3.22;;
74674;SDS011;63200;48.810;12.352;2023-12-29T07:42:35;4.55;;;3.45;;
74674;SDS011;63200;48.810;12.352;2023-12-29T07:45:01;3.60;;;3.28;;
74674;SDS011;63200;48.810;12.352;2023-12-29T07:47:26;3.38;;;3.08;;
74674;SDS011;63200;48.810;12.352;2023-12-29T07:49:51;4.32;;;3.30;;
74674;SDS011;63200;48.810;12.352;2023-12-29T07:52:16;5.00;;;3.60;;
74674;SDS011;63200;48.810;12.352;2023-12-29T07:54:42;3.60;;;3.30;;
74674;SDS011;63200;48.810;12.352;2023-12-29T07:57:07;3.67;;;3.30;;
74674;SDS011;63200;48.810;12.352;2023-12-29T07:59:32;3.90;;;3.17;;
74674;SDS011;63200;48.810;12.352;2023-12-29T08:01:58;4.93;;;3.00;;
74674;SDS011;63200;48.810;12.352;2023-12-29T08:04:23;3.50;;;3.20;;
74674;SDS011;63200;48.810;12.352;2023-12-29T08:06:49;5.70;;;3.13;;
74674;SDS011;63200;48.810;12.352;2023-12-29T08:09:14;4.47;;;3.05;;
74674;SDS011;63200;48.810;12.352;2023-12-29T08:11:39;4.13;;;3.20;;
74674;SDS011;63200;48.810;12.352;2023-12-29T08:14:07;2.92;;;2.80;;
74674;SDS011;63200;48.810;12.352;2023-12-29T08:16:37;3.38;;;3.13;;
74674;SDS011;63200;48.810;12.352;2023-12-29T08:19:03;3.58;;;3.30;;
74674;SDS011;63200;48.810;12.352;2023-12-29T08:21:29;4.18;;;2.70;;
74674;SDS011;63200;48.810;12.352;2023-12-29T08:23:54;4.07;;;3.67;;
74674;SDS011;63200;48.810;12.352;2023-12-29T08:26:19;4.63;;;3.13;;
74674;SDS011;63200;48.810;12.352;2023-12-29T08:28:45;3.55;;;3.28;;
74674;SDS011;63200;48.810;12.352;2023-12-29T08:31:10;5.60;;;3.05;;
74674;SDS011;63200;48.810;12.352;2023-12-29T08:33:35;4.80;;;3.33;;
74674;SDS011;63200;48.810;12.352;2023-12-29T08:36:02;10.38;;;6.18;;
74674;SDS011;63200;48.810;12.352;2023-12-29T08:38:28;5.85;;;3.80;;
74674;SDS011;63200;48.810;12.352;2023-12-29T08:40:54;4.15;;;3.72;;
74674;SDS011;63200;48.810;12.352;2023-12-29T08:43:19;6.22;;;3.40;;
74674;SDS011;63200;48.810;12.352;2023-12-29T08:45:49;3.53;;;2.70;;
74674;SDS011;63200;48.810;12.352;2023-12-29T08:48:14;2.88;;;2.33;;
74674;SDS011;63200;48.810;12.352;2023-12-29T08:50:40;3.20;;;2.90;;
74674;SDS011;63200;48.810;12.352;2023-12-29T08:53:07;3.03;;;2.83;;
74674;SDS011;63200;48.810;12.352;2023-12-29T08:55:33;3.45;;;2.75;;
74674;SDS011;63200;48.810;12.352;2023-12-29T08:57:58;3.08;;;2.78;;
74674;SDS011;63200;48.810;12.352;2023-12-29T09:00:23;2.50;;;2.20;;
74674;SDS011;63200;48.810;12.352;2023-12-29T09:02:48;2.55;;;2.35;;
74674;SDS011;63200;48.810;12.352;2023-12-29T09:05:14;3.30;;;3.00;;
74674;SDS011;63200;48.810;12.352;2023-12-29T09:07:39;4.30;;;3.00;;
74674;SDS011;63200;48.810;12.352;2023-12-29T09:10:05;2.55;;;2.35;;
74674;SDS011;63200;48.810;12.352;2023-12-29T09:12:36;3.15;;;2.88;;
74674;SDS011;63200;48.810;12.352;2023-12-29T09:15:02;3.97;;;3.08;;
74674;SDS011;63200;48.810;12.352;2023-12-29T09:17:28;2.97;;;2.75;;
74674;SDS011;63200;48.810;12.352;2023-12-29T09:19:53;2.90;;;2.60;;
74674;SDS011;63200;48.810;12.352;2023-12-29T09:22:19;4.53;;;2.30;;
74674;SDS011;63200;48.810;12.352;2023-12-29T09:24:45;2.63;;;2.30;;
74674;SDS011;63200;48.810;12.352;2023-12-29T09:27:10;2.42;;;2.22;;
74674;SDS011;63200;48.810;12.352;2023-12-29T09:29:36;2.55;;;2.35;;
74674;SDS011;63200;48.810;12.352;2023-12-29T09:32:01;2.40;;;2.30;;
74674;SDS011;63200;48.810;12.352;2023-12-29T09:34:27;3.00;;;2.70;;
74674;SDS011;63200;48.810;12.352;2023-12-29T09:36:52;2.63;;;2.40;;
74674;SDS011;63200;48.810;12.352;2023-12-29T09:39:17;2.60;;;2.40;;
74674;SDS011;63200;48.810;12.352;2023-12-29T09:41:44;2.45;;;2.33;;
74674;SDS011;63200;48.810;12.352;2023-12-29T09:44:13;2.50;;;2.30;;
74674;SDS011;63200;48.810;12.352;2023-12-29T09:46:40;2.33;;;2.20;;
74674;SDS011;63200;48.810;12.352;2023-12-29T09:49:07;3.10;;;2.50;;
74674;SDS011;63200;48.810;12.352;2023-12-29T09:51:33;3.05;;;2.20;;
74674;SDS011;63200;48.810;12.352;2023-12-29T09:53:59;2.47;;;2.38;;
74674;SDS011;63200;48.810;12.352;2023-12-29T09:56:25;2.42;;;2.33;;
74674;SDS011;63200;48.810;12.352;2023-12-29T09:58:51;2.33;;;2.17;;
74674;SDS011;63200;48.810;12.352;2023-12-29T10:01:18;2.45;;;2.08;;
74674;SDS011;63200;48.810;12.352;2023-12-29T10:03:47;2.78;;;2.53;;
74674;SDS011;63200;48.810;12.352;2023-12-29T10:06:14;2.53;;;2.42;;
74674;SDS011;63200;48.810;12.352;2023-12-29T10:08:45;2.58;;;2.47;;
74674;SDS011;63200;48.810;12.352;2023-12-29T10:11:13;2.72;;;2.55;;
74674;SDS011;63200;48.810;12.352;2023-12-29T10:13:40;2.42;;;2.25;;
74674;SDS011;63200;48.810;12.352;2023-12-29T10:24:17;3.70;;;2.08;;
74674;SDS011;63200;48.810;12.352;2023-12-29T10:26:44;3.60;;;3.13;;
74674;SDS011;63200;48.810;12.352;2023-12-29T10:29:10;1.70;;;1.60;;
74674;SDS011;63200;48.810;12.352;2023-12-29T10:31:36;3.30;;;2.13;;
74674;SDS011;63200;48.810;12.352;2023-12-29T10:34:21;2.25;;;2.13;;
74674;SDS011;63200;48.810;12.352;2023-12-29T10:36:53;1.92;;;1.83;;
74674;SDS011;63200;48.810;12.352;2023-12-29T10:39:19;1.85;;;1.75;;
74674;SDS011;63200;48.810;12.352;2023-12-29T10:41:45;1.73;;;1.60;;
74674;SDS011;63200;48.810;12.352;2023-12-29T10:44:10;2.25;;;2.05;;
74674;SDS011;63200;48.810;12.352;2023-12-29T10:46:35;2.20;;;2.10;;
74674;SDS011;63200;48.810;12.352;2023-12-29T10:49:07;1.50;;;1.40;;
74674;SDS011;63200;48.810;12.352;2023-12-29T10:51:36;1.80;;;1.67;;
74674;SDS011;63200;48.810;12.352;2023-12-29T10:54:02;1.92;;;1.90;;
74674;SDS011;63200;48.810;12.352;2023-12-29T10:56:28;2.00;;;1.90;;
74674;SDS011;63200;48.810;12.352;2023-12-29T10:59:02;2.30;;;2.13;;
74674;SDS011;63200;48.810;12.352;2023-12-29T11:01:29;2.20;;;2.03;;
74674;SDS011;63200;48.810;12.352;2023-12-29T11:04:02;2.05;;;1.95;;
74674;SDS011;63200;48.810;12.352;2023-12-29T11:06:28;1.73;;;1.65;;
74674;SDS011;63200;48.810;12.352;2023-12-29T11:08:54;4.75;;;2.00;;
74674;SDS011;63200;48.810;12.352;2023-12-29T11:11:21;1.58;;;1.52;;
74674;SDS011;63200;48.810;12.352;2023-12-29T11:13:46;2.00;;;1.90;;
74674;SDS011;63200;48.810;12.352;2023-12-29T11:16:13;2.13;;;2.03;;
74674;SDS011;63200;48.810;12.352;2023-12-29T11:18:42;2.15;;;2.03;;
74674;SDS011;63200;48.810;12.352;2023-12-29T11:21:09;2.25;;;1.77;;
74674;SDS011;63200;48.810;12.352;2023-12-29T11:23:35;1.95;;;1.85;;
74674;SDS011;63200;48.810;12.352;2023-12-29T11:26:01;4.15;;;1.90;;
74674;SDS011;63200;48.810;12.352;2023-12-29T11:28:28;1.75;;;1.60;;
74674;SDS011;63200;48.810;12.352;2023-12-29T11:30:53;2.03;;;1.70;;
74674;SDS011;63200;48.810;12.352;2023-12-29T11:33:23;1.80;;;1.70;;
74674;SDS011;63200;48.810;12.352;2023-12-29T11:36:11;2.10;;;2.00;;
74674;SDS011;63200;48.810;12.352;2023-12-29T11:38:45;1.65;;;1.60;;
74674;SDS011;63200;48.810;12.352;2023-12-29T11:41:27;2.42;;;2.22;;
74674;SDS011;63200;48.810;12.352;2023-12-29T11:43:59;2.97;;;1.70;;
74674;SDS011;63200;48.810;12.352;2023-12-29T11:46:34;1.52;;;1.52;;
74674;SDS011;63200;48.810;12.352;2023-12-29T11:49:00;1.98;;;1.88;;
74674;SDS011;63200;48.810;12.352;2023-12-29T11:51:35;2.05;;;1.88;;
74674;SDS011;63200;48.810;12.352;2023-12-29T11:54:08;1.90;;;1.80;;
74674;SDS011;63200;48.810;12.352;2023-12-29T11:56:35;1.73;;;1.73;;
74674;SDS011;63200;48.810;12.352;2023-12-29T11:59:18;2.25;;;2.15;;
74674;SDS011;63200;48.810;12.352;2023-12-29T12:01:48;1.73;;;1.63;;
74674;SDS011;63200;48.810;12.352;2023-12-29T12:04:36;1.73;;;1.63;;
74674;SDS011;63200;48.810;12.352;2023-12-29T12:12:48;1.73;;;1.63;;
74674;SDS011;63200;48.810;12.352;2023-12-29T12:17:53;1.77;;;1.70;;
74674;SDS011;63200;48.810;12.352;2023-12-29T12:20:19;1.90;;;1.80;;
74674;SDS011;63200;48.810;12.352;2023-12-29T12:22:44;1.80;;;1.80;;
74674;SDS011;63200;48.810;12.352;2023-12-29T12:25:15;2.28;;;2.08;;
74674;SDS011;63200;48.810;12.352;2023-12-29T12:27:40;2.15;;;1.90;;
74674;SDS011;63200;48.810;12.352;2023-12-29T12:30:06;1.98;;;1.85;;
74674;SDS011;63200;48.810;12.352;2023-12-29T12:32:34;2.35;;;2.25;;
74674;SDS011;63200;48.810;12.352;2023-12-29T12:35:00;1.92;;;1.80;;
74674;SDS011;63200;48.810;12.352;2023-12-29T12:37:26;1.98;;;1.88;;
74674;SDS011;63200;48.810;12.352;2023-12-29T12:39:52;3.53;;;1.98;;
74674;SDS011;63200;48.810;12.352;2023-12-29T12:42:21;2.13;;;2.10;;
74674;SDS011;63200;48.810;12.352;2023-12-29T12:47:19;1.92;;;1.70;;
74674;SDS011;63200;48.810;12.352;2023-12-29T12:50:00;1.60;;;1.60;;
74674;SDS011;63200;48.810;12.352;2023-12-29T12:52:27;1.45;;;1.27;;
74674;SDS011;63200;48.810;12.352;2023-12-29T12:54:56;2.15;;;1.42;;
74674;SDS011;63200;48.810;12.352;2023-12-29T12:57:21;1.45;;;1.35;;
74674;SDS011;63200;48.810;12.352;2023-12-29T12:59:47;1.00;;;1.00;;
74674;SDS011;63200;48.810;12.352;2023-12-29T13:02:15;1.30;;;1.20;;
74674;SDS011;63200;48.810;12.352;2023-12-29T13:04:41;6.75;;;1.00;;
74674;SDS011;63200;48.810;12.352;2023-12-29T13:07:07;1.15;;;1.15;;
74674;SDS011;63200;48.810;12.352;2023-12-29T13:09:34;1.10;;;1.08;;
74674;SDS011;63200;48.810;12.352;2023-12-29T13:12:10;2.20;;;1.08;;
74674;SDS011;63200;48.810;12.352;2023-12-29T13:14:37;1.88;;;1.33;;
74674;SDS011;63200;48.810;12.352;2023-12-29T13:17:09;3.20;;;1.50;;
74674;SDS011;63200;48.810;12.352;2023-12-29T13:19:36;0.90;;;0.90;;
74674;SDS011;63200;48.810;12.352;2023-12-29T13:22:04;1.30;;;1.30;;
74674;SDS011;63200;48.810;12.352;2023-12-29T13:24:31;1.25;;;1.10;;
74674;SDS011;63200;48.810;12.352;2023-12-29T13:27:01;1.20;;;1.10;;
74674;SDS011;63200;48.810;12.352;2023-12-29T13:29:31;0.95;;;0.95;;
74674;SDS011;63200;48.810;12.352;2023-12-29T13:31:59;1.30;;;1.30;;
74674;SDS011;63200;48.810;12.352;2023-12-29T13:37:45;1.90;;;1.30;;
74674;SDS011;63200;48.810;12.352;2023-12-29T13:40:14;1.35;;;1.35;;
74674;SDS011;63200;48.810;12.352;2023-12-29T13:42:47;3.85;;;1.67;;
74674;SDS011;63200;48.810;12.352;2023-12-29T13:45:14;1.45;;;1.45;;
74674;SDS011;63200;48.810;12.352;2023-12-29T13:47:43;1.50;;;1.40;;
74674;SDS011;63200;48.810;12.352;2023-12-29T13:50:09;1.30;;;1.30;;
74674;SDS011;63200;48.810;12.352;2023-12-29T13:52:35;1.67;;;1.45;;
74674;SDS011;63200;48.810;12.352;2023-12-29T13:55:02;1.23;;;1.10;;
74674;SDS011;63200;48.810;12.352;2023-12-29T13:57:31;1.23;;;1.23;;
74674;SDS011;63200;48.810;12.352;2023-12-29T13:59:57;3.47;;;1.55;;
74674;SDS011;63200;48.810;12.352;2023-12-29T14:02:36;0.80;;;0.80;;
74674;SDS011;63200;48.810;12.352;2023-12-29T14:05:35;1.50;;;1.40;;
74674;SDS011;63200;48.810;12.352;2023-12-29T14:10:32;1.30;;;1.30;;
74674;SDS011;63200;48.810;12.352;2023-12-29T14:13:14;1.08;;;1.08;;
74674;SDS011;63200;48.810;12.352;2023-12-29T14:15:40;1.20;;;1.20;;
74674;SDS011;63200;48.810;12.352;2023-12-29T14:20:38;2.80;;;1.40;;
74674;SDS011;63200;48.810;12.352;2023-12-29T14:23:05;1.30;;;1.30;;
74674;SDS011;63200;48.810;12.352;2023-12-29T14:25:31;1.50;;;1.50;;
74674;SDS011;63200;48.810;12.352;2023-12-29T14:28:00;1.30;;;1.30;;
74674;SDS011;63200;48.810;12.352;2023-12-29T14:30:26;1.50;;;1.40;;
74674;SDS011;63200;48.810;12.352;2023-12-29T14:32:53;2.28;;;1.20;;
74674;SDS011;63200;48.810;12.352;2023-12-29T14:35:19;1.55;;;1.50;;
74674;SDS011;63200;48.810;12.352;2023-12-29T14:37:44;2.70;;;1.02;;
74674;SDS011;63200;48.810;12.352;2023-12-29T14:40:12;1.77;;;1.67;;
74674;SDS011;63200;48.810;12.352;2023-12-29T14:42:37;1.88;;;1.80;;
74674;SDS011;63200;48.810;12.352;2023-12-29T14:45:04;2.17;;;2.08;;
74674;SDS011;63200;48.810;12.352;2023-12-29T14:47:30;2.05;;;1.92;;
74674;SDS011;63200;48.810;12.352;2023-12-29T14:49:55;3.25;;;2.92;;
74674;SDS011;63200;48.810;12.352;2023-12-29T14:52:21;8.60;;;5.93;;
74674;SDS011;63200;48.810;12.352;2023-12-29T14:54:46;3.67;;;3.15;;
74674;SDS011;63200;48.810;12.352;2023-12-29T14:57:11;3.92;;;2.95;;
74674;SDS011;63200;48.810;12.352;2023-12-29T14:59:36;5.90;;;3.40;;